createdAt,value
2023-05-10T00:00:56.273Z,96188.25
2023-05-10T00:03:23.254Z,96198.00
2023-05-10T00:05:50.333Z,96187.81
2023-05-10T00:08:17.170Z,96182.81
2023-05-10T00:10:44.034Z,96191.13
2023-05-10T00:13:10.918Z,96193.00
2023-05-10T00:15:37.921Z,96186.94
2023-05-10T00:18:04.776Z,96195.03
2023-05-10T00:20:31.595Z,96188.16
2023-05-10T00:22:58.457Z,96184.84
2023-05-10T00:25:25.363Z,96187.94
2023-05-10T00:27:52.220Z,96180.06
2023-05-10T00:30:19.795Z,96182.13
2023-05-10T00:32:46.757Z,96183.56
2023-05-10T00:35:13.885Z,96181.25
2023-05-10T00:37:41.197Z,96185.22
2023-05-10T00:40:08.450Z,96184.56
2023-05-10T00:42:35.281Z,96197.47
2023-05-10T00:45:02.280Z,96200.56
2023-05-10T00:47:29.989Z,96200.16
2023-05-10T00:49:57.029Z,96199.53
2023-05-10T00:52:24.633Z,96203.84
2023-05-10T00:54:53.467Z,96205.28
2023-05-10T00:57:20.676Z,96199.06
2023-05-10T00:59:47.548Z,96205.72
2023-05-10T01:02:14.668Z,96203.19
2023-05-10T01:04:41.711Z,96199.06
2023-05-10T01:07:08.644Z,96199.06
2023-05-10T01:09:35.820Z,96206.13
2023-05-10T01:12:04.468Z,96203.03
2023-05-10T01:14:31.653Z,96214.44
2023-05-10T01:16:58.540Z,96207.81
2023-05-10T01:19:29.755Z,96217.78
2023-05-10T01:22:43.563Z,96208.81
2023-05-10T01:25:28.332Z,96212.56
2023-05-10T01:28:16.627Z,96216.69
2023-05-10T01:31:22.939Z,96230.03
2023-05-10T01:34:00.272Z,96222.53
2023-05-10T01:36:38.315Z,96221.94
2023-05-10T01:39:20.055Z,96225.28
2023-05-10T01:42:08.141Z,96217.78
2023-05-10T01:44:52.744Z,96222.16
2023-05-10T01:47:39.975Z,96214.25
2023-05-10T01:50:19.523Z,96222.81
2023-05-10T01:52:55.493Z,96226.97
2023-05-10T01:55:27.396Z,96220.97
2023-05-10T01:58:11.271Z,96224.69
2023-05-10T02:00:44.309Z,96224.50
2023-05-10T02:03:12.438Z,96237.59
2023-05-10T02:05:40.638Z,96236.56
2023-05-10T02:08:08.852Z,96233.88
2023-05-10T02:10:38.779Z,96231.34
2023-05-10T02:13:07.523Z,96228.66
2023-05-10T02:15:35.138Z,96233.03
2023-05-10T02:18:04.632Z,96231.56
2023-05-10T02:20:33.632Z,96241.13
2023-05-10T02:23:01.860Z,96239.88
2023-05-10T02:25:30.786Z,96244.06
2023-05-10T02:27:58.696Z,96249.91
2023-05-10T02:30:26.663Z,96251.16
2023-05-10T02:32:54.394Z,96247.84
2023-05-10T02:35:23.389Z,96246.59
2023-05-10T02:37:51.495Z,96256.84
2023-05-10T02:40:20.312Z,96251.84
2023-05-10T02:42:49.836Z,96257.50
2023-05-10T02:45:22.283Z,96267.06
2023-05-10T02:47:49.691Z,96267.09
2023-05-10T02:50:17.103Z,96260.22
2023-05-10T02:52:49.209Z,96262.09
2023-05-10T02:55:17.814Z,96263.13
2023-05-10T02:57:53.286Z,96261.25
2023-05-10T03:00:20.385Z,96262.34
2023-05-10T03:02:47.434Z,96254.84
2023-05-10T03:05:14.430Z,96254.44
2023-05-10T03:07:41.632Z,96261.28
2023-05-10T03:10:09.116Z,96265.47
2023-05-10T03:13:14.201Z,96266.91
2023-05-10T03:15:59.629Z,96280.22
2023-05-10T03:18:38.249Z,96269.81
2023-05-10T03:21:09.874Z,96278.38
2023-05-10T03:23:49.124Z,96277.53
2023-05-10T03:26:21.730Z,96278.78
2023-05-10T03:28:51.997Z,96274.84
2023-05-10T03:31:19.240Z,96280.66
2023-05-10T03:33:53.417Z,96278.38
2023-05-10T03:36:26.695Z,96277.94
2023-05-10T03:38:54.275Z,96280.66
2023-05-10T03:41:21.588Z,96270.88
2023-05-10T03:43:48.724Z,96282.75
2023-05-10T03:46:15.796Z,96281.91
2023-05-10T03:48:42.753Z,96286.69
2023-05-10T03:51:09.596Z,96293.16
2023-05-10T03:53:36.588Z,96292.94
2023-05-10T03:56:03.633Z,96295.84
2023-05-10T03:58:30.413Z,96293.34
2023-05-10T04:00:57.258Z,96302.50
2023-05-10T04:03:24.446Z,96294.59
2023-05-10T04:06:03.010Z,96297.91
2023-05-10T04:08:30.147Z,96294.59
2023-05-10T04:11:11.444Z,96302.28
2023-05-10T04:13:38.920Z,96292.50
2023-05-10T04:16:06.234Z,96294.16
2023-05-10T04:18:33.491Z,96299.41
2023-05-10T04:21:00.315Z,96306.47
2023-05-10T04:23:28.456Z,96300.22
2023-05-10T04:26:01.798Z,96305.22
2023-05-10T04:28:28.828Z,96299.41
2023-05-10T04:31:03.444Z,96303.72
2023-05-10T04:33:30.708Z,96300.63
2023-05-10T04:35:58.152Z,96303.53
2023-05-10T04:38:25.527Z,96305.59
2023-05-10T04:40:52.421Z,96313.72
2023-05-10T04:43:19.292Z,96311.84
2023-05-10T04:45:46.248Z,96316.25
2023-05-10T04:48:13.375Z,96309.78
2023-05-10T04:50:40.961Z,96315.81
2023-05-10T04:53:08.101Z,96317.50
2023-05-10T04:55:34.967Z,96316.25
2023-05-10T04:58:01.765Z,96317.50
2023-05-10T05:00:28.569Z,96319.16
2023-05-10T05:02:55.536Z,96311.47
2023-05-10T05:05:22.470Z,96317.53
2023-05-10T05:07:49.283Z,96309.19
2023-05-10T05:10:16.467Z,96308.78
2023-05-10T05:12:43.713Z,96319.38
2023-05-10T05:15:11.600Z,96325.44
2023-05-10T05:17:38.531Z,96336.06
2023-05-10T05:20:06.363Z,96326.88
2023-05-10T05:22:33.175Z,96335.22
2023-05-10T05:25:00.087Z,96332.72
2023-05-10T05:27:28.704Z,96338.34
2023-05-10T05:29:56.540Z,96337.50
2023-05-10T05:32:24.475Z,96323.34
2023-05-10T05:34:51.572Z,96332.31
2023-05-10T05:37:20.618Z,96332.50
2023-05-10T05:39:47.454Z,96339.59
2023-05-10T05:42:15.570Z,96335.84
2023-05-10T05:44:42.377Z,96342.69
2023-05-10T05:47:09.402Z,96346.03
2023-05-10T05:49:36.221Z,96345.22
2023-05-10T05:52:04.664Z,96352.28
2023-05-10T05:54:32.782Z,96340.22
2023-05-10T05:57:01.518Z,96344.38
2023-05-10T05:59:28.792Z,96355.84
2023-05-10T06:01:55.861Z,96357.28
2023-05-10T06:04:22.840Z,96350.41
2023-05-10T06:06:49.745Z,96354.59
2023-05-10T06:09:16.851Z,96359.63
2023-05-10T06:11:43.755Z,96367.31
2023-05-10T06:14:11.212Z,96355.47
2023-05-10T06:16:38.056Z,96355.03
2023-05-10T06:19:05.162Z,96354.63
2023-05-10T06:21:32.333Z,96359.88
2023-05-10T06:23:59.324Z,96362.13
2023-05-10T06:26:26.320Z,96376.09
2023-05-10T06:28:53.124Z,96380.06
2023-05-10T06:31:19.967Z,96376.94
2023-05-10T06:33:46.800Z,96378.19
2023-05-10T06:36:14.186Z,96377.97
2023-05-10T06:38:41.195Z,96378.41
2023-05-10T06:41:08.035Z,96381.53
2023-05-10T06:43:35.114Z,96384.66
2023-05-10T06:46:02.078Z,96386.09
2023-05-10T06:48:29.093Z,96387.16
2023-05-10T06:50:55.936Z,96381.34
2023-05-10T06:53:22.858Z,96388.00
2023-05-10T06:55:51.978Z,96392.16
2023-05-10T06:58:18.918Z,96383.81
2023-05-10T07:00:46.318Z,96384.44
2023-05-10T07:03:13.267Z,96390.47
2023-05-10T07:05:40.166Z,96383.81
2023-05-10T07:08:07.031Z,96382.56
2023-05-10T07:10:34.274Z,96391.09
2023-05-10T07:13:02.208Z,96391.72
2023-05-10T07:15:29.472Z,96389.84
2023-05-10T07:17:56.507Z,96395.06
2023-05-10T07:20:23.474Z,96394.19
2023-05-10T07:22:50.288Z,96387.53
2023-05-10T07:25:17.397Z,96399.22
2023-05-10T07:27:44.565Z,96393.81
2023-05-10T07:30:12.172Z,96404.25
2023-05-10T07:32:40.402Z,96397.59
2023-05-10T07:35:07.793Z,96391.31
2023-05-10T07:37:34.692Z,96397.16
2023-05-10T07:40:01.524Z,96401.53
2023-05-10T07:42:28.325Z,96392.38
2023-05-10T07:44:55.104Z,96397.38
2023-05-10T07:47:22.098Z,96396.09
2023-05-10T07:49:48.932Z,96400.06
2023-05-10T07:52:16.356Z,96394.84
2023-05-10T07:54:43.256Z,96395.91
2023-05-10T07:57:10.159Z,96396.91
2023-05-10T07:59:37.317Z,96409.66
2023-05-10T08:02:04.298Z,96407.13
2023-05-10T08:04:31.201Z,96410.28
2023-05-10T08:06:58.036Z,96416.53
2023-05-10T08:09:25.248Z,96407.72
2023-05-10T08:11:52.277Z,96423.41
2023-05-10T08:14:19.182Z,96433.41
2023-05-10T08:16:46.089Z,96424.63
2023-05-10T08:19:12.922Z,96426.75
2023-05-10T08:21:41.414Z,96432.56
2023-05-10T08:24:08.372Z,96422.38
2023-05-10T08:26:35.271Z,96434.84
2023-05-10T08:29:02.068Z,96435.72
2023-05-10T08:31:28.903Z,96439.88
2023-05-10T08:33:55.882Z,96439.25
2023-05-10T08:36:25.211Z,96434.47
2023-05-10T08:38:53.072Z,96438.66
2023-05-10T08:41:25.494Z,96437.59
2023-05-10T08:43:54.188Z,96442.16
2023-05-10T08:46:23.700Z,96441.34
2023-05-10T08:48:52.998Z,96438.00
2023-05-10T08:51:24.848Z,96447.38
2023-05-10T08:53:52.274Z,96448.03
2023-05-10T08:56:20.607Z,96441.75
2023-05-10T08:58:49.764Z,96436.13
2023-05-10T09:01:19.244Z,96446.75
2023-05-10T09:03:48.623Z,96450.94
2023-05-10T09:06:16.360Z,96460.94
2023-05-10T09:08:43.827Z,96458.00
2023-05-10T09:11:12.344Z,96453.44
2023-05-10T09:13:39.279Z,96460.94
2023-05-10T09:16:13.907Z,96470.31
2023-05-10T09:18:48.329Z,96464.69
2023-05-10T09:21:15.270Z,96464.50
2023-05-10T09:23:48.710Z,96462.81
2023-05-10T09:26:15.783Z,96469.91
2023-05-10T09:29:01.453Z,96467.16
2023-05-10T09:32:00.191Z,96471.56
2023-05-10T09:34:32.827Z,96474.28
2023-05-10T09:37:03.636Z,96470.09
2023-05-10T09:39:36.308Z,96467.81
2023-05-10T09:42:10.980Z,96471.16
2023-05-10T09:44:38.963Z,96466.78
2023-05-10T09:47:06.662Z,96468.25
2023-05-10T09:49:34.078Z,96469.50
2023-05-10T09:52:05.937Z,96476.78
2023-05-10T09:54:34.445Z,96474.50
2023-05-10T09:57:01.925Z,96483.47
2023-05-10T09:59:30.076Z,96473.25
2023-05-10T10:04:51.885Z,96482.22
2023-05-10T10:07:25.668Z,96494.53
2023-05-10T10:09:52.938Z,96489.94
2023-05-10T10:12:21.001Z,96494.50
2023-05-10T10:14:50.429Z,96500.97
2023-05-10T10:17:18.229Z,96492.19
2023-05-10T10:19:46.177Z,96499.50
2023-05-10T10:22:13.068Z,96494.66
2023-05-10T10:24:43.346Z,96503.38
2023-05-10T10:27:50.405Z,96498.69
2023-05-10T10:30:17.208Z,96503.50
2023-05-10T10:33:27.170Z,96497.81
2023-05-10T10:35:56.591Z,96504.72
2023-05-10T10:38:23.745Z,96500.97
2023-05-10T10:41:04.413Z,96493.25
2023-05-10T10:43:31.480Z,96485.78
2023-05-10T10:46:18.713Z,96486.81
2023-05-10T10:49:10.114Z,96490.56
2023-05-10T10:51:40.784Z,96501.69
2023-05-10T10:54:11.885Z,96478.78
2023-05-10T10:56:39.050Z,96485.06
2023-05-10T10:59:05.972Z,96493.81
2023-05-10T11:01:36.302Z,96492.16
2023-05-10T11:04:06.494Z,96503.41
2023-05-10T11:06:35.033Z,96500.88
2023-05-10T11:09:10.083Z,96503.81
2023-05-10T11:11:49.760Z,96506.31
2023-05-10T11:14:23.389Z,96511.28
2023-05-10T11:16:50.489Z,96500.03
2023-05-10T11:19:18.752Z,96503.72
2023-05-10T11:22:14.337Z,96503.47
2023-05-10T11:24:41.170Z,96502.44
2023-05-10T11:27:08.087Z,96504.97
2023-05-10T11:29:34.888Z,96509.56
2023-05-10T11:32:01.791Z,96502.53
2023-05-10T11:34:35.763Z,96502.53
2023-05-10T11:37:02.807Z,96500.28
2023-05-10T11:39:32.154Z,96507.59
2023-05-10T11:42:00.116Z,96516.56
2023-05-10T11:44:34.401Z,96517.00
2023-05-10T11:47:02.711Z,96514.28
2023-05-10T11:49:29.621Z,96505.75
2023-05-10T11:52:09.607Z,96517.63
2023-05-10T11:54:36.806Z,96510.97
2023-05-10T11:57:04.230Z,96530.16
2023-05-10T11:59:31.317Z,96511.81
2023-05-10T12:01:58.400Z,96501.78
2023-05-10T12:04:25.667Z,96513.06
2023-05-10T12:06:52.630Z,96512.84
2023-05-10T12:09:31.521Z,96516.41
2023-05-10T12:12:03.748Z,96522.03
2023-05-10T12:14:35.488Z,96519.53
2023-05-10T12:17:02.331Z,96518.28
2023-05-10T12:19:29.208Z,96532.28
2023-05-10T12:21:56.058Z,96517.06
2023-05-10T12:24:22.876Z,96530.19
2023-05-10T12:26:49.733Z,96524.34
2023-05-10T12:29:19.482Z,96530.81
2023-05-10T12:32:00.504Z,96529.78
2023-05-10T12:34:36.935Z,96525.59
2023-05-10T12:37:04.486Z,96522.25
2023-05-10T12:39:45.528Z,96522.44
2023-05-10T12:42:12.879Z,96527.88
2023-05-10T12:44:40.619Z,96533.72
2023-05-10T12:47:07.536Z,96528.69
2023-05-10T12:49:34.827Z,96530.97
2023-05-10T12:52:01.672Z,96522.81
2023-05-10T12:54:28.830Z,96522.00
2023-05-10T12:56:55.866Z,96521.81
2023-05-10T12:59:23.617Z,96526.19
2023-05-10T13:01:50.430Z,96522.41
2023-05-10T13:04:17.228Z,96524.94
2023-05-10T13:06:44.126Z,96530.75
2023-05-10T13:09:10.969Z,96516.97
2023-05-10T13:11:38.028Z,96534.94
2023-05-10T13:14:04.842Z,96513.44
2023-05-10T13:16:32.288Z,96516.34
2023-05-10T13:18:59.434Z,96529.09
2023-05-10T13:21:26.409Z,96522.81
2023-05-10T13:23:53.874Z,96520.13
2023-05-10T13:26:21.016Z,96525.72
2023-05-10T13:28:47.964Z,96522.38
2023-05-10T13:31:14.842Z,96526.56
2023-05-10T13:33:41.620Z,96515.91
2023-05-10T13:36:08.566Z,96526.56
2023-05-10T13:38:35.456Z,96515.91
2023-05-10T13:41:02.284Z,96516.94
2023-05-10T13:43:30.363Z,96518.84
2023-05-10T13:45:57.266Z,96511.31
2023-05-10T13:48:24.080Z,96508.16
2023-05-10T13:50:51.038Z,96514.00
2023-05-10T13:53:17.839Z,96506.06
2023-05-10T13:55:44.609Z,96510.44
2023-05-10T13:58:11.635Z,96517.34
2023-05-10T14:00:38.437Z,96512.31
2023-05-10T14:03:06.253Z,96508.13
2023-05-10T14:05:33.548Z,96499.38
2023-05-10T14:08:00.357Z,96497.06
2023-05-10T14:10:27.252Z,96502.91
2023-05-10T14:12:54.120Z,96508.50
2023-05-10T14:15:20.916Z,96497.66
2023-05-10T14:17:47.760Z,96501.19
2023-05-10T14:20:14.598Z,96504.75
2023-05-10T14:22:41.879Z,96501.19
2023-05-10T14:25:09.743Z,96503.09
2023-05-10T14:27:36.521Z,96496.38
2023-05-10T14:30:03.607Z,96490.50
2023-05-10T14:32:30.420Z,96487.97
2023-05-10T14:34:57.257Z,96496.09
2023-05-10T14:37:24.073Z,96490.84
2023-05-10T14:39:50.837Z,96489.34
2023-05-10T14:42:17.671Z,96491.00
2023-05-10T14:44:44.503Z,96492.06
2023-05-10T14:47:12.308Z,96487.69
2023-05-10T14:49:39.319Z,96480.16
2023-05-10T14:52:06.493Z,96492.47
2023-05-10T14:54:34.406Z,96485.16
2023-05-10T14:57:01.581Z,96485.56
2023-05-10T14:59:28.396Z,96490.16
2023-05-10T15:01:55.607Z,96494.31
2023-05-10T15:04:23.573Z,96491.59
2023-05-10T15:06:51.172Z,96503.75
2023-05-10T15:09:18.048Z,96492.25
2023-05-10T15:11:45.380Z,96486.22
2023-05-10T15:14:12.198Z,96489.75
2023-05-10T15:16:39.063Z,96498.13
2023-05-10T15:19:06.296Z,96510.03
2023-05-10T15:21:39.446Z,96497.72
2023-05-10T15:24:06.929Z,96491.66
2023-05-10T15:26:33.916Z,96494.63
2023-05-10T15:29:00.809Z,96495.03
2023-05-10T15:31:28.155Z,96495.03
2023-05-10T15:34:02.266Z,96500.91
2023-05-10T15:36:29.093Z,96499.88
2023-05-10T15:38:56.757Z,96499.41
2023-05-10T15:41:24.463Z,96499.41
2023-05-10T15:43:51.351Z,96499.78
2023-05-10T15:46:18.186Z,96498.75
2023-05-10T15:48:45.113Z,96501.44
2023-05-10T15:51:12.317Z,96500.84
2023-05-10T15:53:46.527Z,96507.78
2023-05-10T15:56:19.965Z,96504.03
2023-05-10T15:58:47.354Z,96505.72
2023-05-10T16:01:14.268Z,96504.72
2023-05-10T16:03:41.261Z,96508.06
2023-05-10T16:06:08.127Z,96510.81
2023-05-10T16:08:35.352Z,96508.13
2023-05-10T16:11:02.604Z,96507.09
2023-05-10T16:13:30.004Z,96509.38
2023-05-10T16:15:58.073Z,96514.81
2023-05-10T16:18:25.189Z,96518.19
2023-05-10T16:20:53.213Z,96513.41
2023-05-10T16:23:20.162Z,96532.84
2023-05-10T16:25:46.994Z,96516.56
2023-05-10T16:28:13.758Z,96521.81
2023-05-10T16:30:40.837Z,96530.38
2023-05-10T16:33:07.692Z,96527.25
2023-05-10T16:35:34.568Z,96529.34
2023-05-10T16:38:01.362Z,96526.00
2023-05-10T16:40:28.172Z,96526.81
2023-05-10T16:42:55.007Z,96526.81
2023-05-10T16:45:21.857Z,96532.25
2023-05-10T16:47:48.651Z,96536.00
2023-05-10T16:50:15.652Z,96529.94
2023-05-10T16:52:42.528Z,96538.31
2023-05-10T16:55:09.578Z,96535.59
2023-05-10T16:57:36.396Z,96544.78
2023-05-10T17:00:04.980Z,96539.56
2023-05-10T17:02:31.955Z,96540.59
2023-05-10T17:04:58.814Z,96541.06
2023-05-10T17:07:26.351Z,96539.56
2023-05-10T17:09:53.305Z,96545.63
2023-05-10T17:12:20.486Z,96540.63
2023-05-10T17:14:47.523Z,96548.16
2023-05-10T17:17:14.339Z,96555.44
2023-05-10T17:19:44.728Z,96551.88
2023-05-10T17:22:13.597Z,96552.31
2023-05-10T17:24:40.635Z,96551.69
2023-05-10T17:27:07.497Z,96554.81
2023-05-10T17:29:34.319Z,96561.50
2023-05-10T17:32:01.283Z,96555.66
2023-05-10T17:34:28.227Z,96552.94
2023-05-10T17:36:55.441Z,96562.72
2023-05-10T17:39:22.409Z,96555.44
2023-05-10T17:41:49.243Z,96552.72
2023-05-10T17:44:16.194Z,96549.19
2023-05-10T17:46:43.401Z,96560.84
2023-05-10T17:49:10.411Z,96561.69
2023-05-10T17:51:37.291Z,96561.91
2023-05-10T17:54:04.298Z,96560.84
2023-05-10T17:56:31.161Z,96570.66
2023-05-10T17:58:57.936Z,96577.94
2023-05-10T18:01:24.768Z,96569.81
2023-05-10T18:03:52.739Z,96563.38
2023-05-10T18:06:19.548Z,96569.81
2023-05-10T18:08:46.360Z,96564.41
2023-05-10T18:11:13.263Z,96575.25
2023-05-10T18:13:40.161Z,96576.28
2023-05-10T18:16:08.696Z,96570.25
2023-05-10T18:18:35.933Z,96570.41
2023-05-10T18:21:03.567Z,96568.97
2023-05-10T18:23:30.389Z,96572.50
2023-05-10T18:25:57.579Z,96569.59
2023-05-10T18:28:24.621Z,96565.22
2023-05-10T18:30:51.688Z,96569.59
2023-05-10T18:33:18.777Z,96567.28
2023-05-10T18:35:46.127Z,96564.19
2023-05-10T18:38:13.613Z,96563.75
2023-05-10T18:40:41.356Z,96573.94
2023-05-10T18:43:08.845Z,96567.91
2023-05-10T18:45:35.678Z,96569.16
2023-05-10T18:48:02.849Z,96567.69
2023-05-10T18:50:29.744Z,96566.22
2023-05-10T18:52:56.576Z,96566.22
2023-05-10T18:55:25.789Z,96570.41
2023-05-10T18:57:52.667Z,96583.13
2023-05-10T19:00:20.377Z,96577.69
2023-05-10T19:02:47.672Z,96579.56
2023-05-10T19:05:15.702Z,96587.72
2023-05-10T19:07:43.674Z,96586.84
2023-05-10T19:10:12.970Z,96589.78
2023-05-10T19:12:41.713Z,96589.78
2023-05-10T19:15:09.438Z,96596.44
2023-05-10T19:17:38.379Z,96590.59
2023-05-10T19:20:07.517Z,96594.75
2023-05-10T19:22:47.178Z,96594.34
2023-05-10T19:25:21.725Z,96603.69
2023-05-10T19:27:48.577Z,96603.09
2023-05-10T19:30:16.899Z,96608.06
2023-05-10T19:32:44.177Z,96607.41
2023-05-10T19:35:12.588Z,96605.13
2023-05-10T19:37:40.984Z,96612.63
2023-05-10T19:40:09.532Z,96609.69
2023-05-10T19:42:36.332Z,96607.38
2023-05-10T19:45:03.495Z,96615.28
2023-05-10T19:47:31.099Z,96612.13
2023-05-10T19:49:58.195Z,96612.75
2023-05-10T19:52:24.992Z,96613.16
2023-05-10T19:54:51.896Z,96620.00
2023-05-10T19:57:18.797Z,96616.84
2023-05-10T19:59:45.585Z,96613.66
2023-05-10T20:02:12.408Z,96615.75
2023-05-10T20:04:39.263Z,96626.97
2023-05-10T20:07:09.130Z,96625.25
2023-05-10T20:09:35.938Z,96620.16
2023-05-10T20:12:02.704Z,96625.19
2023-05-10T20:14:30.841Z,96620.78
2023-05-10T20:16:57.764Z,96617.66
2023-05-10T20:19:25.003Z,96623.63
2023-05-10T20:21:51.819Z,96612.56
2023-05-10T20:24:19.299Z,96616.69
2023-05-10T20:26:46.169Z,96616.25
2023-05-10T20:29:13.221Z,96613.53
2023-05-10T20:31:40.131Z,96615.78
2023-05-10T20:34:07.092Z,96613.66
2023-05-10T20:36:33.887Z,96615.28
2023-05-10T20:39:00.716Z,96609.44
2023-05-10T20:41:27.533Z,96607.94
2023-05-10T20:43:54.308Z,96607.28
2023-05-10T20:46:21.293Z,96615.63
2023-05-10T20:48:48.225Z,96613.13
2023-05-10T20:51:15.031Z,96607.06
2023-05-10T20:53:41.935Z,96608.09
2023-05-10T20:56:08.722Z,96609.31
2023-05-10T20:58:35.873Z,96608.00
2023-05-10T21:01:02.868Z,96606.72
2023-05-10T21:03:29.955Z,96603.59
2023-05-10T21:05:56.786Z,96604.78
2023-05-10T21:08:23.544Z,96605.19
2023-05-10T21:10:50.438Z,96599.16
2023-05-10T21:13:17.361Z,96597.44
2023-05-10T21:15:44.316Z,96596.00
2023-05-10T21:18:11.155Z,96598.03
2023-05-10T21:20:38.010Z,96601.16
2023-05-10T21:23:05.011Z,96608.59
2023-05-10T21:25:31.801Z,96610.84
2023-05-10T21:27:58.601Z,96605.81
2023-05-10T21:30:25.680Z,96600.16
2023-05-10T21:32:53.774Z,96599.91
2023-05-10T21:35:20.665Z,96594.63
2023-05-10T21:37:47.448Z,96596.88
2023-05-10T21:40:14.349Z,96596.63
2023-05-10T21:42:41.230Z,96601.56
2023-05-10T21:45:08.398Z,96595.06
2023-05-10T21:47:35.298Z,96596.63
2023-05-10T21:50:02.143Z,96599.09
2023-05-10T21:52:29.309Z,96598.81
2023-05-10T21:54:56.166Z,96593.16
2023-05-10T21:57:23.337Z,96592.88
2023-05-10T21:59:50.182Z,96599.84
2023-05-10T22:02:17.017Z,96591.47
2023-05-10T22:04:43.854Z,96595.56
2023-05-10T22:07:11.276Z,96590.75
2023-05-10T22:09:38.143Z,96592.97
2023-05-10T22:12:05.205Z,96592.50
2023-05-10T22:14:32.141Z,96591.00
2023-05-10T22:16:59.029Z,96597.44
2023-05-10T22:19:25.924Z,96595.56
2023-05-10T22:21:53.159Z,96596.41
2023-05-10T22:24:19.913Z,96592.72
2023-05-10T22:26:46.728Z,96591.47
2023-05-10T22:29:13.525Z,96591.47
2023-05-10T22:31:40.758Z,96591.31
2023-05-10T22:34:07.765Z,96593.81
2023-05-10T22:36:34.594Z,96585.72
2023-05-10T22:39:01.602Z,96590.91
2023-05-10T22:41:28.427Z,96592.63
2023-05-10T22:43:55.510Z,96595.94
2023-05-10T22:46:22.557Z,96587.84
2023-05-10T22:48:49.579Z,96588.88
2023-05-10T22:51:16.646Z,96599.88
2023-05-10T22:53:43.486Z,96599.88
2023-05-10T22:56:10.284Z,96600.03
2023-05-10T22:58:37.163Z,96592.78
2023-05-10T23:01:04.131Z,96590.09
2023-05-10T23:03:31.011Z,96596.72
2023-05-10T23:05:57.776Z,96595.88
2023-05-10T23:08:24.596Z,96603.97
2023-05-10T23:10:51.649Z,96595.88
2023-05-10T23:13:20.796Z,96598.56
2023-05-10T23:15:48.204Z,96594.84
2023-05-10T23:18:15.458Z,96592.97
2023-05-10T23:20:43.113Z,96594.84
2023-05-10T23:23:10.931Z,96594.66
2023-05-10T23:25:38.190Z,96596.50
2023-05-10T23:28:05.348Z,96596.72
2023-05-10T23:30:32.162Z,96593.34
2023-05-10T23:32:59.147Z,96593.34
2023-05-10T23:35:26.141Z,96600.59
2023-05-10T23:37:52.918Z,96605.16
2023-05-10T23:40:19.968Z,96598.09
2023-05-10T23:42:46.854Z,96599.31
2023-05-10T23:45:13.607Z,96595.78
2023-05-10T23:47:40.496Z,96599.09
2023-05-10T23:50:08.021Z,96599.09
2023-05-10T23:52:34.829Z,96602.47
2023-05-10T23:55:01.676Z,96594.19
2023-05-10T23:57:28.689Z,96594.84
2023-05-10T23:59:55.492Z,96597.53
